Terminal Aerodrome Forecast
Issued by NWS Hastings, NE

Home | Current Version | Previous Version | Text Only | Print | Product List | Glossary On
Versions: 1 2 3 4 5 6 7 8 9 10 11 12 13 14
000
FTUS45 KGID 231724
TAFEAR
TAF
KEAR 231724Z 2318/2418 19021G31KT P6SM FEW250
     FM240300 17016G23KT P6SM SCT250 WS015/19050KT
     FM241300 20018G27KT P6SM FEW080 BKN150
      AMD LTD TO CLD VIS AND WIND=

USA.gov is the U.S. government's official web portal to all federal, state and local government web resources and services.